Time;durP1;ratioP1;P1;durP2;ratioP2;P2;SDS_P1;SDS_P2;PMS_P1;PMS_P2;Temp;Humidity;BMP_temperature;BMP_pressure;BME280_temperature;BME280_humidity;BME280_pressure;Samples;Min_cycle;Max_cycle;Signal;HPM_P1;HPM_P2
2022/04/27 00:01:52;;;;;;;6.60;4.70;;;;;;;8.65;71.12;101403.31;4985650;28;20212;-71
2022/04/27 00:04:19;;;;;;;6.10;4.50;;;;;;;8.62;70.83;101407.88;4991910;28;20218;-71
2022/04/27 00:06:46;;;;;;;7.23;5.10;;;;;;;8.56;71.28;101405.53;4990995;28;20231;-71
2022/04/27 00:09:12;;;;;;;6.83;5.03;;;;;;;8.49;71.48;101404.03;4991382;28;20203;-70
2022/04/27 00:11:39;;;;;;;6.87;4.80;;;;;;;8.43;71.26;101406.94;4990529;28;20211;-70
2022/04/27 00:14:05;;;;;;;6.87;4.90;;;;;;;8.36;71.15;101398.41;4991052;28;20287;-70
2022/04/27 00:16:32;;;;;;;5.90;5.23;;;;;;;8.31;71.49;101411.81;4989811;28;20200;-70
2022/04/27 00:19:01;;;;;;;9.00;5.40;;;;;;;8.27;71.31;101410.22;4990180;28;20552;-71
2022/04/27 00:21:27;;;;;;;8.13;5.30;;;;;;;8.24;72.22;101406.84;4988599;28;20230;-71
2022/04/27 00:23:54;;;;;;;8.63;4.93;;;;;;;8.19;71.83;101401.72;4991352;28;20523;-70
2022/04/27 00:26:20;;;;;;;6.33;4.80;;;;;;;8.14;71.89;101402.84;4990378;28;20218;-70
2022/04/27 00:28:47;;;;;;;7.63;5.00;;;;;;;8.08;71.83;101401.28;4991826;28;20211;-71
2022/04/27 00:31:13;;;;;;;7.77;5.03;;;;;;;8.04;71.87;101399.72;4991108;28;20224;-70
2022/04/27 00:33:40;;;;;;;7.07;5.10;;;;;;;8.00;71.89;101403.41;4991434;28;20211;-70
2022/04/27 00:36:08;;;;;;;6.27;5.00;;;;;;;7.97;72.50;101400.88;4991187;28;20204;-70
2022/04/27 00:38:34;;;;;;;6.00;5.13;;;;;;;7.94;72.76;101408.94;4990755;28;20693;-70
2022/04/27 00:41:01;;;;;;;8.83;5.40;;;;;;;7.90;72.69;101402.03;5007110;23;20231;-71
2022/04/27 00:43:38;;;;;;;9.40;4.90;;;;;;;7.84;72.36;101408.47;5000485;28;20203;-72
2022/04/27 00:46:05;;;;;;;7.20;5.20;;;;;;;7.81;73.25;101405.06;4991704;28;20257;-71
2022/04/27 00:48:32;;;;;;;7.43;5.20;;;;;;;7.77;73.19;101417.59;4991640;28;20238;-74
2022/04/27 00:51:02;;;;;;;7.10;5.20;;;;;;;7.73;73.25;101413.31;4990841;28;20725;-72
2022/04/27 00:53:30;;;;;;;6.90;4.50;;;;;;;7.69;73.94;101406.44;4976665;28;20216;-73
2022/04/27 00:55:58;;;;;;;6.40;4.90;;;;;;;7.68;73.79;101401.19;4959622;28;20586;-71
2022/04/27 00:58:26;;;;;;;7.37;5.23;;;;;;;7.63;73.70;101407.53;4964751;28;20209;-73
2022/04/27 01:00:52;;;;;;;7.80;5.40;;;;;;;7.60;73.55;101405.00;4974922;28;20234;-71
2022/04/27 01:03:19;;;;;;;6.07;5.30;;;;;;;7.58;73.78;101414.78;4978127;28;20199;-72
2022/04/27 01:05:47;;;;;;;9.10;5.33;;;;;;;7.55;74.25;101417.56;4971582;28;20236;-72
2022/04/27 01:08:14;;;;;;;8.47;5.17;;;;;;;7.52;74.33;101412.41;4970879;28;20239;-73
2022/04/27 01:10:43;;;;;;;9.40;5.10;;;;;;;7.49;74.07;101425.75;4971105;28;20224;-70
2022/04/27 01:13:11;;;;;;;8.87;5.30;;;;;;;7.46;74.67;101425.88;4976027;28;20200;-72
2022/04/27 01:15:37;;;;;;;8.30;6.00;;;;;;;7.44;74.41;101424.19;4976005;28;20219;-71
2022/04/27 01:18:04;;;;;;;7.73;5.10;;;;;;;7.39;74.28;101420.84;4971153;28;20295;-72
2022/04/27 01:20:33;;;;;;;9.67;5.77;;;;;;;7.34;74.88;101414.88;4972362;28;20479;-72
2022/04/27 01:23:01;;;;;;;8.27;5.43;;;;;;;7.31;75.07;101419.38;4971500;28;20765;-71
2022/04/27 01:25:27;;;;;;;7.80;5.50;;;;;;;7.30;75.48;101424.72;4972244;28;20353;-71
2022/04/27 01:27:54;;;;;;;11.20;5.30;;;;;;;7.28;75.38;101426.56;4973377;28;20223;-72
2022/04/27 01:30:21;;;;;;;8.17;5.50;;;;;;;7.23;75.40;101429.38;4990349;28;20721;-73
2022/04/27 01:32:48;;;;;;;8.00;5.93;;;;;;;7.23;75.64;101428.50;4977337;28;20212;-72
2022/04/27 01:35:15;;;;;;;7.47;5.47;;;;;;;7.19;75.84;101432.19;4974016;28;20243;-72
2022/04/27 01:38:00;;;;;;;7.73;5.73;;;;;;;7.16;75.95;101438.50;4974321;28;20588;-73
2022/04/27 01:40:27;;;;;;;8.07;6.07;;;;;;;7.13;75.64;101435.94;4951900;29;20244;-72
2022/04/27 01:42:53;;;;;;;9.53;5.97;;;;;;;7.11;75.76;101431.63;4965872;28;20699;-73
2022/04/27 01:45:20;;;;;;;11.43;5.80;;;;;;;7.08;76.27;101437.03;4968873;28;20296;-72
2022/04/27 01:47:46;;;;;;;8.13;5.80;;;;;;;7.05;76.03;101445.06;4966995;28;20228;-71
2022/04/27 01:50:13;;;;;;;7.73;5.77;;;;;;;7.03;76.09;101444.25;4967295;28;20228;-72
2022/04/27 01:55:25;;;;;;;9.07;6.00;;;;;;;6.96;76.76;101447.16;4971182;28;20419;-71
2022/04/27 01:57:52;;;;;;;10.97;6.10;;;;;;;6.93;76.54;101449.91;4970341;28;20204;-72
2022/04/27 02:00:18;;;;;;;8.03;6.30;;;;;;;6.92;76.62;101450.81;4970661;28;20239;-72
2022/04/27 02:02:45;;;;;;;9.03;5.83;;;;;;;6.91;77.00;101446.44;4970650;28;20204;-73
2022/04/27 02:05:11;;;;;;;8.30;5.57;;;;;;;6.89;77.14;101442.13;4958884;28;20559;-72
2022/04/27 02:07:38;;;;;;;5.97;5.20;;;;;;;6.87;76.72;101454.53;4968063;28;20232;-72
2022/04/27 02:10:06;;;;;;;6.83;6.00;;;;;;;6.85;77.35;101459.88;4977513;28;20227;-70
2022/04/27 02:12:34;;;;;;;7.20;5.83;;;;;;;6.83;77.06;101463.50;4987070;28;20223;-72
2022/04/27 02:15:02;;;;;;;10.00;6.57;;;;;;;6.80;76.75;101463.63;4968548;28;20666;-70
2022/04/27 02:17:30;;;;;;;6.70;5.97;;;;;;;6.78;77.11;101470.75;4972768;28;20291;-72
2022/04/27 02:19:56;;;;;;;8.20;5.90;;;;;;;6.75;77.56;101471.72;4969545;28;20918;-72
2022/04/27 02:22:23;;;;;;;8.70;6.77;;;;;;;6.73;77.40;101475.34;4969166;28;20204;-72
2022/04/27 02:24:49;;;;;;;9.23;6.63;;;;;;;6.70;77.41;101481.59;4969543;28;20595;-72
2022/04/27 02:27:16;;;;;;;8.33;5.97;;;;;;;6.68;77.83;101469.34;4971157;28;20611;-71
2022/04/27 02:29:44;;;;;;;7.73;6.27;;;;;;;6.65;77.37;101472.94;4970246;28;20667;-72
2022/04/27 02:32:10;;;;;;;9.93;7.17;;;;;;;6.62;77.76;101486.31;4971493;28;20204;-71
2022/04/27 02:34:36;;;;;;;9.00;6.00;;;;;;;6.61;78.20;101492.50;4989246;28;20215;-72
2022/04/27 02:37:06;;;;;;;10.27;6.47;;;;;;;6.58;78.25;101490.84;4978859;28;20701;-71
2022/04/27 02:39:32;;;;;;;10.57;6.67;;;;;;;6.57;78.06;101498.81;4984363;28;20214;-72
2022/04/27 02:41:59;;;;;;;9.07;6.50;;;;;;;6.54;78.18;101496.28;4989077;28;20306;-73
2022/04/27 02:44:25;;;;;;;8.73;6.97;;;;;;;6.51;78.11;101501.66;4989288;28;20223;-71
2022/04/27 02:46:53;;;;;;;8.20;6.30;;;;;;;6.50;78.48;101502.56;4988162;28;20203;-73
2022/04/27 02:52:05;;;;;;;9.40;6.03;;;;;;;6.46;78.07;101498.28;4969921;28;20495;-73
2022/04/27 02:54:31;;;;;;;7.67;6.30;;;;;;;6.44;78.58;101498.38;4969611;28;20212;-72
2022/04/27 02:56:58;;;;;;;10.20;6.33;;;;;;;6.43;78.58;101509.00;4969953;28;20215;-72
2022/04/27 02:59:25;;;;;;;9.33;6.63;;;;;;;6.41;78.90;101506.41;4970571;28;20215;-71
2022/04/27 03:01:51;;;;;;;12.83;7.20;;;;;;;6.40;78.61;101506.44;4970915;28;20731;-72
2022/04/27 03:04:19;;;;;;;10.73;7.13;;;;;;;6.38;78.66;101511.78;4970030;28;20216;-72
2022/04/27 03:06:45;;;;;;;11.30;7.27;;;;;;;6.38;78.85;101508.28;4968762;28;20708;-72
2022/04/27 03:09:12;;;;;;;9.67;6.90;;;;;;;6.36;79.32;101499.53;4969898;28;20235;-72
2022/04/27 03:11:38;;;;;;;8.80;6.80;;;;;;;6.34;79.46;101496.06;4970695;28;20791;-71
2022/04/27 03:14:05;;;;;;;9.77;7.00;;;;;;;6.34;79.23;101509.28;4969041;28;20208;-71
2022/04/27 03:16:31;;;;;;;9.73;6.80;;;;;;;6.32;78.98;101509.31;4983366;28;20578;-71
2022/04/27 03:18:58;;;;;;;8.70;6.97;;;;;;;6.30;79.42;101516.44;4989283;28;20211;-70
2022/04/27 03:21:26;;;;;;;11.50;7.27;;;;;;;6.29;79.04;101517.34;4976641;28;20247;-71
2022/04/27 03:23:53;;;;;;;11.00;7.30;;;;;;;6.25;79.24;101519.25;4970607;28;20208;-72
2022/04/27 03:26:19;;;;;;;14.27;8.50;;;;;;;6.23;79.12;101515.78;4986623;28;20215;-71
2022/04/27 03:28:46;;;;;;;9.33;7.67;;;;;;;6.21;79.43;101511.47;4974502;28;20788;-71
2022/04/27 03:31:12;;;;;;;9.87;7.90;;;;;;;6.17;79.87;101510.69;4962789;28;20232;-72
2022/04/27 03:33:39;;;;;;;10.57;8.13;;;;;;;6.16;79.70;101523.97;4970179;28;20204;-72
2022/04/27 03:36:06;;;;;;;9.47;7.53;;;;;;;6.16;80.08;101523.97;4969150;28;20204;-70
2022/04/27 03:38:34;;;;;;;12.70;7.77;;;;;;;6.12;80.08;101517.03;4972136;28;20203;-71
2022/04/27 03:41:00;;;;;;;14.10;8.07;;;;;;;6.10;80.24;101532.94;4988620;28;20240;-71
2022/04/27 03:43:27;;;;;;;11.13;8.33;;;;;;;6.09;80.35;101536.50;4985210;28;20458;-72
2022/04/27 03:45:53;;;;;;;11.37;8.80;;;;;;;6.07;79.96;101534.84;4983917;28;20204;-71
2022/04/27 03:48:20;;;;;;;11.20;8.27;;;;;;;6.05;80.41;101539.31;4968852;28;20663;-71
2022/04/27 03:50:46;;;;;;;9.53;8.03;;;;;;;6.02;80.72;101545.53;4983326;28;20224;-72
2022/04/27 03:53:13;;;;;;;13.53;8.33;;;;;;;6.02;80.42;101549.97;4988644;28;20219;-72
2022/04/27 03:55:41;;;;;;;10.80;8.07;;;;;;;5.99;80.69;101544.75;4979815;28;20358;-71
2022/04/27 03:58:07;;;;;;;14.10;8.57;;;;;;;5.96;80.69;101548.38;4966554;28;20215;-72
2022/04/27 04:00:34;;;;;;;12.03;8.13;;;;;;;5.95;80.76;101556.34;4969975;28;20572;-71
2022/04/27 04:03:01;;;;;;;12.20;8.37;;;;;;;5.92;80.52;101557.28;4969487;28;20216;-72
2022/04/27 04:05:28;;;;;;;12.27;8.70;;;;;;;5.91;80.81;101566.16;4964417;28;20658;-73
2022/04/27 04:07:54;;;;;;;12.00;8.07;;;;;;;5.90;80.95;101575.00;4965307;28;20228;-73
2022/04/27 04:10:21;;;;;;;13.30;8.67;;;;;;;5.89;81.39;101567.97;4969336;28;20597;-71
2022/04/27 04:12:49;;;;;;;10.40;7.80;;;;;;;5.86;81.36;101570.69;4956616;28;20216;-69
2022/04/27 04:15:16;;;;;;;11.67;9.07;;;;;;;5.84;81.37;101572.50;4961903;28;20220;-72
2022/04/27 04:17:45;;;;;;;10.00;8.20;;;;;;;5.83;81.43;101573.41;4959900;28;20212;-71
2022/04/27 04:20:12;;;;;;;12.53;8.30;;;;;;;5.83;81.59;101576.91;4964443;28;20260;-71
2022/04/27 04:22:39;;;;;;;14.20;9.00;;;;;;;5.83;81.55;101573.41;4962763;28;20254;-71
2022/04/27 04:30:36;;;;;;;10.03;8.00;;;;;;;5.82;81.70;101587.53;4965377;28;20258;-71
2022/04/27 04:33:03;;;;;;;13.57;8.83;;;;;;;5.80;81.61;101594.63;4965318;28;20204;-71
2022/04/27 04:35:30;;;;;;;13.57;9.30;;;;;;;5.80;81.93;101597.28;4955890;28;20678;-72
2022/04/27 04:37:56;;;;;;;15.67;9.20;;;;;;;5.78;81.84;101602.59;4962847;28;20204;-72
2022/04/27 04:40:23;;;;;;;10.77;8.63;;;;;;;5.77;81.95;101603.50;4964206;28;20240;-71
2022/04/27 04:42:49;;;;;;;12.23;8.40;;;;;;;5.78;82.07;101607.91;4963703;28;20208;-72
2022/04/27 04:45:17;;;;;;;11.83;8.70;;;;;;;5.78;82.16;101607.03;4962898;28;20211;-72
2022/04/27 04:47:43;;;;;;;16.37;9.37;;;;;;;5.79;82.62;101603.47;4965769;28;20215;-71
2022/04/27 04:50:10;;;;;;;15.90;9.40;;;;;;;5.81;82.47;101621.03;4970534;28;20223;-71
2022/04/27 04:52:37;;;;;;;14.03;9.10;;;;;;;5.83;82.48;101623.63;4974058;28;20214;-71
2022/04/27 04:55:04;;;;;;;11.37;9.03;;;;;;;5.84;82.79;101630.66;4969047;28;20216;-71
2022/04/27 04:57:31;;;;;;;12.50;8.77;;;;;;;5.86;82.71;101620.91;4965478;28;20213;-73
2022/04/27 04:59:58;;;;;;;12.37;8.53;;;;;;;5.88;82.96;101624.38;4970408;28;20246;-71
2022/04/27 05:02:26;;;;;;;11.47;8.63;;;;;;;5.90;83.00;101631.41;4969595;28;20236;-73
2022/04/27 05:04:52;;;;;;;12.80;9.03;;;;;;;5.92;83.16;101639.25;4972527;28;20670;-72
2022/04/27 05:07:19;;;;;;;13.23;8.87;;;;;;;5.93;83.19;101635.69;4961641;28;20209;-70
2022/04/27 05:09:46;;;;;;;9.90;8.87;;;;;;;5.97;83.28;101639.13;4957311;28;20228;-72
2022/04/27 05:12:13;;;;;;;13.43;9.50;;;;;;;6.00;83.50;101646.97;4960681;28;20748;-72
2022/04/27 05:14:39;;;;;;;14.67;8.30;;;;;;;6.02;83.44;101647.81;4959801;28;20208;-72
2022/04/27 05:17:06;;;;;;;13.63;9.00;;;;;;;6.05;83.22;101650.38;4958858;28;20228;-71
2022/04/27 05:19:33;;;;;;;11.40;8.87;;;;;;;6.07;83.25;101652.06;4961615;28;20208;-72
2022/04/27 05:22:00;;;;;;;12.40;9.20;;;;;;;6.10;83.65;101645.78;4958479;28;20455;-72
2022/04/27 05:24:26;;;;;;;15.50;8.87;;;;;;;6.12;83.49;101658.06;4960626;28;20599;-72
2022/04/27 05:26:53;;;;;;;16.80;9.83;;;;;;;6.16;83.62;101648.28;4957289;28;20212;-71
2022/04/27 05:32:07;;;;;;;12.33;9.07;;;;;;;6.24;83.60;101649.78;4958177;28;20212;-70
2022/04/27 05:34:35;;;;;;;15.13;10.23;;;;;;;6.30;83.58;101659.31;4959535;28;20237;-72
2022/04/27 05:37:02;;;;;;;13.33;9.07;;;;;;;6.36;83.90;101664.41;4962972;28;20315;-71
2022/04/27 05:39:28;;;;;;;14.63;9.30;;;;;;;6.41;83.73;101667.81;4962253;28;20200;-72
2022/04/27 05:41:55;;;;;;;14.80;9.13;;;;;;;6.48;83.71;101673.75;4964217;28;20240;-71
2022/04/27 05:44:23;;;;;;;17.50;9.37;;;;;;;6.55;83.86;101672.69;4962206;28;20583;-72
2022/04/27 05:46:49;;;;;;;13.07;9.33;;;;;;;6.62;83.57;101671.59;4965325;28;20205;-72
2022/04/27 05:49:16;;;;;;;11.20;8.90;;;;;;;6.71;83.94;101676.59;4964404;28;20572;-71
2022/04/27 05:51:44;;;;;;;12.03;8.73;;;;;;;6.79;83.60;101669.28;4969718;28;20238;-72
2022/04/27 05:54:13;;;;;;;11.03;8.37;;;;;;;6.87;83.33;101676.97;4970379;28;20235;-71
2022/04/27 05:56:41;;;;;;;17.70;9.90;;;;;;;6.95;83.91;101670.53;4970177;28;20771;-72
2022/04/27 05:59:07;;;;;;;11.80;8.50;;;;;;;7.04;83.46;101676.44;4970341;28;20204;-71
2022/04/27 06:01:34;;;;;;;10.70;9.53;;;;;;;7.13;83.74;101673.50;4967537;28;20238;-72
2022/04/27 06:04:01;;;;;;;17.83;9.70;;;;;;;7.21;83.26;101674.97;4970330;28;20208;-72
2022/04/27 06:06:27;;;;;;;12.53;8.87;;;;;;;7.31;83.28;101678.19;4969591;28;20204;-73
2022/04/27 06:08:55;;;;;;;11.20;9.27;;;;;;;7.41;83.26;101679.59;4970378;28;20239;-72
2022/04/27 06:11:22;;;;;;;15.83;8.83;;;;;;;7.48;82.85;101681.13;4970228;28;20243;-73
2022/04/27 06:13:49;;;;;;;12.27;9.20;;;;;;;7.56;82.10;101688.81;4970151;28;20682;-72
2022/04/27 06:16:16;;;;;;;14.57;8.03;;;;;;;7.62;81.74;101689.47;4970253;28;20216;-72
2022/04/27 06:18:45;;;;;;;11.57;8.67;;;;;;;7.69;81.62;101695.44;4969719;28;20211;-72
2022/04/27 06:21:12;;;;;;;14.17;8.10;;;;;;;7.79;81.03;101690.66;4970021;28;20610;-72
2022/04/27 06:23:39;;;;;;;13.40;8.93;;;;;;;7.89;80.43;101689.41;4989406;28;20200;-72
2022/04/27 06:26:07;;;;;;;12.40;9.33;;;;;;;8.00;80.30;101692.56;4989802;28;20215;-70
2022/04/27 06:28:34;;;;;;;10.20;8.53;;;;;;;8.12;79.76;101697.41;4977178;28;20220;-72
2022/04/27 06:31:01;;;;;;;13.60;9.07;;;;;;;8.23;80.00;101702.34;4968977;28;20326;-72
2022/04/27 06:33:28;;;;;;;13.10;9.13;;;;;;;8.33;78.98;101698.44;4969761;28;20208;-72
2022/04/27 06:35:54;;;;;;;10.77;8.40;;;;;;;8.44;78.46;101700.69;4963552;28;20220;-73
2022/04/27 06:38:21;;;;;;;15.23;9.27;;;;;;;8.53;77.90;101700.34;4969409;28;20694;-73
2022/04/27 06:40:47;;;;;;;12.43;9.13;;;;;;;8.61;77.68;101698.25;4983318;23;20432;-71
2022/04/27 06:43:15;;;;;;;12.67;8.60;;;;;;;8.72;77.42;101706.69;4973684;28;20203;-71
2022/04/27 06:45:42;;;;;;;13.07;9.00;;;;;;;8.80;76.37;101701.91;4980168;28;20204;-71
2022/04/27 06:48:08;;;;;;;10.63;9.13;;;;;;;8.89;76.58;101708.69;4983201;28;20208;-70
2022/04/27 06:50:35;;;;;;;14.47;9.30;;;;;;;8.98;76.22;101701.19;4977673;28;20228;-71
2022/04/27 06:53:01;;;;;;;13.50;9.13;;;;;;;9.05;75.87;101713.31;4973183;28;20211;-71
2022/04/27 06:55:28;;;;;;;11.73;9.17;;;;;;;9.16;75.25;101712.00;4976395;28;20279;-70
2022/04/27 06:57:55;;;;;;;13.57;9.17;;;;;;;9.24;74.76;101705.47;4980699;28;20211;-70
2022/04/27 07:00:25;;;;;;;14.13;9.60;;;;;;;9.29;74.26;101706.16;4976108;28;20234;-71
2022/04/27 07:02:52;;;;;;;14.60;9.90;;;;;;;9.31;74.07;101708.75;4974719;28;20208;-70
2022/04/27 07:05:20;;;;;;;12.97;9.07;;;;;;;9.38;73.71;101713.72;4976949;28;20218;-71
2022/04/27 07:07:47;;;;;;;10.23;8.50;;;;;;;9.49;74.03;101717.75;4982164;28;20214;-70
2022/04/27 07:10:16;;;;;;;11.27;8.87;;;;;;;9.60;73.59;101719.03;4981426;28;20238;-71
2022/04/27 07:12:44;;;;;;;17.30;9.63;;;;;;;9.71;73.14;101722.09;4984277;28;20214;-70
2022/04/27 07:15:10;;;;;;;13.40;9.60;;;;;;;9.82;71.97;101726.97;4984840;28;20203;-70
2022/04/27 07:17:38;;;;;;;10.03;8.90;;;;;;;9.92;71.70;101730.94;4983499;28;20677;-70
2022/04/27 07:20:06;;;;;;;13.90;8.90;;;;;;;10.03;71.26;101738.47;4981141;28;20597;-70
2022/04/27 07:22:33;;;;;;;11.00;9.57;;;;;;;10.10;71.09;101732.78;4981019;28;20212;-70
2022/04/27 07:24:59;;;;;;;11.80;8.90;;;;;;;10.18;70.21;101739.59;4981774;28;20201;-70
2022/04/27 07:27:27;;;;;;;12.30;9.00;;;;;;;10.26;69.81;101743.66;4970565;28;20211;-71
2022/04/27 07:29:53;;;;;;;11.47;8.93;;;;;;;10.37;69.91;101738.72;4967935;28;20592;-70
2022/04/27 07:32:20;;;;;;;13.17;8.80;;;;;;;10.50;69.48;101743.50;4974701;28;20716;-71
2022/04/27 07:34:51;;;;;;;13.50;9.20;;;;;;;10.59;68.85;101746.59;4968071;28;20215;-71
2022/04/27 07:37:18;;;;;;;13.37;9.80;;;;;;;10.71;68.08;101747.84;4967572;28;20267;-70
2022/04/27 07:39:45;;;;;;;11.67;8.60;;;;;;;10.79;67.34;101756.31;4970773;28;20215;-70
2022/04/27 07:42:11;;;;;;;13.63;8.33;;;;;;;10.86;66.86;101751.59;4969725;28;20236;-71
2022/04/27 07:44:38;;;;;;;12.93;9.70;;;;;;;10.93;66.86;101751.22;4977036;28;20655;-71
2022/04/27 07:47:05;;;;;;;10.80;9.13;;;;;;;11.05;66.55;101744.44;4969990;28;20215;-73
2022/04/27 07:49:31;;;;;;;10.67;8.70;;;;;;;11.17;66.19;101748.31;4973496;28;20713;-74
2022/04/27 07:51:59;;;;;;;13.27;9.17;;;;;;;11.28;65.95;101738.88;4968981;28;20228;-74
2022/04/27 07:54:26;;;;;;;14.60;9.00;;;;;;;11.41;65.51;101749.78;4973102;28;20622;-74
2022/04/27 07:56:52;;;;;;;13.27;9.17;;;;;;;11.54;65.00;101753.56;4973030;28;20210;-74
2022/04/27 07:59:19;;;;;;;10.90;8.20;;;;;;;11.66;64.86;101754.75;4972836;28;20210;-74
2022/04/27 08:01:45;;;;;;;13.73;9.00;;;;;;;11.78;64.20;101748.84;4996281;28;20479;-74
2022/04/27 08:04:12;;;;;;;9.17;8.13;;;;;;;11.86;63.25;101751.97;5011594;28;20576;-74
2022/04/27 08:06:38;;;;;;;9.33;8.00;;;;;;;11.92;62.94;101746.34;5011744;28;20209;-74
2022/04/27 08:09:06;;;;;;;14.97;9.60;;;;;;;12.02;63.18;101749.38;5012044;28;20848;-74
2022/04/27 08:11:33;;;;;;;11.70;7.97;;;;;;;12.14;62.81;101757.63;5011730;28;20230;-74
2022/04/27 08:13:59;;;;;;;11.73;8.73;;;;;;;12.30;62.34;101752.34;4997997;28;20573;-74
2022/04/27 08:16:26;;;;;;;14.90;9.30;;;;;;;12.44;62.06;101759.63;4972490;28;20510;-74
2022/04/27 08:18:52;;;;;;;9.47;8.03;;;;;;;12.58;61.33;101759.72;4972162;28;20208;-74
2022/04/27 08:21:21;;;;;;;12.10;9.00;;;;;;;12.70;60.62;101759.09;4973398;28;20627;-74
2022/04/27 08:23:50;;;;;;;11.73;8.23;;;;;;;12.81;59.95;101756.69;4991857;28;20269;-74
2022/04/27 08:26:17;;;;;;;11.60;8.10;;;;;;;12.90;58.68;101757.13;4991673;28;20258;-74
2022/04/27 08:28:45;;;;;;;10.17;7.60;;;;;;;12.96;58.48;101760.31;4991606;28;20218;-74
2022/04/27 08:31:14;;;;;;;11.83;8.33;;;;;;;13.05;58.72;101761.63;4991409;28;20237;-74
2022/04/27 08:33:41;;;;;;;9.90;8.40;;;;;;;13.12;58.04;101763.84;4991642;28;20763;-74
2022/04/27 08:36:07;;;;;;;10.73;9.00;;;;;;;13.22;58.23;101764.25;4991345;28;20204;-73
2022/04/27 08:38:35;;;;;;;9.70;8.70;;;;;;;13.32;57.33;101775.28;4991589;28;20206;-74
2022/04/27 08:41:02;;;;;;;11.63;8.67;;;;;;;13.40;56.67;101778.38;4991415;28;20317;-74
2022/04/27 08:43:30;;;;;;;10.23;7.80;;;;;;;13.47;56.63;101769.91;4991575;28;20215;-74
2022/04/27 08:45:59;;;;;;;14.47;8.40;;;;;;;13.60;56.98;101782.59;4991175;28;20741;-74
2022/04/27 08:48:26;;;;;;;13.10;8.20;;;;;;;13.71;56.23;101783.69;4990817;28;20200;-74
2022/04/27 08:50:52;;;;;;;8.83;7.90;;;;;;;13.85;56.26;101783.72;4991262;28;20231;-74
2022/04/27 08:53:19;;;;;;;10.63;8.23;;;;;;;13.97;55.40;101781.28;4991202;28;20211;-74
2022/04/27 08:55:45;;;;;;;10.50;8.03;;;;;;;14.12;54.87;101778.56;4991372;28;20208;-75
2022/04/27 08:58:14;;;;;;;11.70;8.63;;;;;;;14.21;54.34;101783.34;4990908;28;20718;-74
2022/04/27 09:00:43;;;;;;;8.80;7.90;;;;;;;14.31;54.13;101786.34;4991350;28;20215;-74
2022/04/27 09:03:23;;;;;;;10.53;8.00;;;;;;;14.40;53.40;101791.16;4990985;28;20592;-74
2022/04/27 09:05:51;;;;;;;12.70;7.93;;;;;;;14.49;53.11;101785.25;4990253;28;20218;-74
2022/04/27 09:08:18;;;;;;;9.97;8.60;;;;;;;14.55;53.33;101787.53;4990593;28;20614;-74
2022/04/27 09:10:45;;;;;;;10.03;7.90;;;;;;;14.61;52.46;101780.94;4990861;28;20653;-74
2022/04/27 09:13:11;;;;;;;10.03;7.77;;;;;;;14.64;52.51;101791.47;4991087;28;20323;-74
2022/04/27 09:15:38;;;;;;;10.63;8.60;;;;;;;14.69;52.21;101789.34;4991041;28;20211;-74
2022/04/27 09:21:00;;;;;;;10.17;8.67;;;;;;;14.91;51.65;101792.41;4990587;28;20230;-74
2022/04/27 09:23:29;;;;;;;12.00;8.40;;;;;;;14.97;51.06;101788.50;4990706;28;20200;-74
2022/04/27 09:25:57;;;;;;;8.30;7.50;;;;;;;15.03;50.89;101803.34;4991110;28;20291;-74
2022/04/27 09:28:26;;;;;;;10.33;8.40;;;;;;;15.05;49.89;101796.06;4990400;28;20237;-74
2022/04/27 09:30:53;;;;;;;11.13;9.33;;;;;;;15.02;50.56;101806.97;4990679;28;20235;-74
2022/04/27 09:33:39;;;;;;;11.37;9.30;;;;;;;15.08;51.58;101799.38;4990875;28;20224;-74
2022/04/27 09:36:22;;;;;;;12.30;9.23;;;;;;;15.17;51.74;101796.13;4990727;28;20209;-74
2022/04/27 09:38:48;;;;;;;10.23;8.67;;;;;;;15.27;52.06;101794.56;4990640;28;20211;-74
2022/04/27 09:41:15;;;;;;;10.77;8.83;;;;;;;15.41;51.71;101792.78;4990673;28;20607;-75
2022/04/27 09:43:44;;;;;;;9.63;8.63;;;;;;;15.51;51.48;101785.88;4990404;28;20594;-74
2022/04/27 09:46:22;;;;;;;13.33;8.80;;;;;;;15.60;51.14;101787.97;4990272;28;20588;-74
2022/04/27 09:49:08;;;;;;;13.80;9.17;;;;;;;15.64;49.61;101784.13;4990426;28;20227;-74
2022/04/27 09:51:36;;;;;;;11.17;8.73;;;;;;;15.71;50.03;101798.00;4990244;28;20227;-74
2022/04/27 09:54:04;;;;;;;9.73;8.73;;;;;;;15.82;50.63;101782.03;4990527;28;20209;-74
2022/04/27 09:56:38;;;;;;;12.80;10.13;;;;;;;15.92;49.68;101785.84;4989522;28;20236;-74
2022/04/27 09:59:06;;;;;;;9.67;8.70;;;;;;;15.96;49.30;101784.63;4990416;28;20219;-74
2022/04/27 10:01:36;;;;;;;10.47;9.37;;;;;;;15.99;48.80;101789.81;4989903;28;20279;-74
2022/04/27 10:04:05;;;;;;;9.70;8.70;;;;;;;16.03;49.08;101787.78;4989993;28;20245;-74
2022/04/27 10:06:32;;;;;;;9.90;8.57;;;;;;;16.11;49.06;101780.06;4989014;28;20220;-74
2022/04/27 10:09:00;;;;;;;11.33;9.03;;;;;;;16.21;48.80;101781.16;4990303;28;20214;-74
2022/04/27 10:11:27;;;;;;;9.57;8.57;;;;;;;16.30;48.71;101778.66;4990113;28;20245;-75
2022/04/27 10:13:54;;;;;;;9.97;8.97;;;;;;;16.41;48.66;101780.63;4989743;28;20215;-74
2022/04/27 10:16:22;;;;;;;9.63;8.67;;;;;;;16.50;48.15;101776.41;4989272;28;20220;-74
2022/04/27 10:18:48;;;;;;;10.87;9.17;;;;;;;16.56;47.35;101774.16;4989391;28;20214;-74
2022/04/27 10:21:39;;;;;;;10.70;8.40;;;;;;;16.61;47.55;101777.41;4989708;28;20229;-74
2022/04/27 10:24:06;;;;;;;11.67;8.60;;;;;;;16.66;47.31;101771.72;4989924;28;20281;-74
2022/04/27 10:26:33;;;;;;;9.77;8.47;;;;;;;16.75;47.02;101773.75;4989575;28;20215;-74
2022/04/27 10:29:02;;;;;;;11.07;8.60;;;;;;;16.87;47.07;101772.00;4989590;28;20214;-74
2022/04/27 10:32:02;;;;;;;10.20;8.27;;;;;;;17.00;46.02;101772.88;4989160;28;20239;-74
2022/04/27 10:34:29;;;;;;;11.83;7.83;;;;;;;17.02;45.65;101776.28;4989631;28;20221;-74
2022/04/27 10:36:58;;;;;;;11.50;8.27;;;;;;;17.04;45.55;101770.78;4989135;28;20214;-74
2022/04/27 10:39:26;;;;;;;9.60;8.50;;;;;;;17.05;45.70;101761.75;4989832;28;20214;-74
2022/04/27 10:42:31;;;;;;;8.70;7.90;;;;;;;17.11;45.76;101769.38;4988550;28;20243;-74
2022/04/27 10:45:08;;;;;;;9.60;8.60;;;;;;;17.11;45.29;101759.47;4988792;28;20715;-74
2022/04/27 10:47:41;;;;;;;9.50;8.30;;;;;;;17.16;45.42;101761.84;4988082;28;20731;-74
2022/04/27 10:50:33;;;;;;;11.43;8.47;;;;;;;17.23;45.55;101768.47;4988106;28;20225;-75
2022/04/27 10:53:19;;;;;;;10.50;8.83;;;;;;;17.27;45.12;101762.75;4988471;28;20220;-74
2022/04/27 10:55:48;;;;;;;10.10;8.93;;;;;;;17.36;44.95;101761.22;4988585;28;20215;-74
2022/04/27 10:58:24;;;;;;;12.87;9.43;;;;;;;17.42;44.44;101762.59;4987825;28;20209;-74
2022/04/27 11:01:20;;;;;;;9.03;8.13;;;;;;;17.49;44.26;101763.84;4988218;28;20238;-74
2022/04/27 11:03:55;;;;;;;9.43;8.33;;;;;;;17.56;44.25;101765.09;4988674;28;20212;-75
2022/04/27 11:06:23;;;;;;;11.73;9.70;;;;;;;17.62;43.89;101761.97;4987263;28;20212;-74
2022/04/27 11:09:05;;;;;;;10.67;9.57;;;;;;;17.67;43.64;101759.81;4988565;28;20288;-74
2022/04/27 11:11:32;;;;;;;8.57;7.73;;;;;;;17.71;44.04;101763.16;4988155;28;20250;-75
2022/04/27 11:14:06;;;;;;;10.20;8.20;;;;;;;17.76;44.18;101759.09;4988722;28;20206;-74
2022/04/27 11:16:44;;;;;;;10.13;8.73;;;;;;;17.75;43.32;101765.47;4987763;28;20214;-74
2022/04/27 11:19:10;;;;;;;9.30;8.33;;;;;;;17.74;43.75;101754.81;4988179;28;20215;-74
2022/04/27 11:21:37;;;;;;;9.77;7.93;;;;;;;17.73;43.57;101761.19;4987961;28;20218;-74
2022/04/27 11:24:08;;;;;;;8.77;7.80;;;;;;;17.71;43.60;101757.75;4988349;28;20209;-74
2022/04/27 11:26:41;;;;;;;9.63;8.57;;;;;;;17.72;43.68;101765.72;4987633;28;20209;-74
2022/04/27 11:29:08;;;;;;;8.90;8.00;;;;;;;17.75;43.46;101759.22;4991071;28;20203;-74
2022/04/27 11:31:35;;;;;;;9.60;8.13;;;;;;;17.77;43.26;101759.97;4991342;28;20240;-74
2022/04/27 11:34:02;;;;;;;9.70;7.90;;;;;;;17.80;43.08;101757.91;4991228;28;20687;-74
2022/04/27 11:36:29;;;;;;;12.83;8.30;;;;;;;17.87;43.21;101758.31;4991303;28;20224;-74
2022/04/27 11:38:56;;;;;;;8.87;7.90;;;;;;;17.91;42.94;101752.56;4991350;28;20290;-74
2022/04/27 11:42:59;;;;;;;8.73;7.83;;;;;;;17.98;42.40;101756.50;5085962;28;20545;-75
2022/04/27 11:45:26;;;;;;;9.07;8.03;;;;;;;18.03;41.79;101754.31;5085619;28;20206;-74
2022/04/27 11:47:58;;;;;;;10.97;8.40;;;;;;;18.12;41.73;101749.16;5085356;28;20506;-75